Terminal Aerodrome Forecast
Issued by NWS

Home | Current Version | Previous Version | Text Only | Print | Product List | Glossary On
Versions: 1 2 3 4 5 6 7 8 9 10 11 12
000
FTUS45 KABQ 181728
TAFTCC
TAF
KTCC 181728Z 1818/1918 21005KT P6SM BKN250
     FM182000 24014G22KT P6SM BKN200
     FM190000 24011KT P6SM SCT200
     FM191200 28008KT P6SM SCT250=

USA.gov is the U.S. government's official web portal to all federal, state and local government web resources and services.